createdAt,value
2022-12-18T00:01:15.595Z,102396.69
2022-12-18T00:03:42.482Z,102390.81
2022-12-18T00:06:09.259Z,102398.03
2022-12-18T00:08:35.824Z,102395.59
2022-12-18T00:11:07.082Z,102403.00
2022-12-18T00:13:34.023Z,102406.72
2022-12-18T00:16:05.168Z,102411.13
2022-12-18T00:18:32.239Z,102406.59
2022-12-18T00:21:03.880Z,102406.44
2022-12-18T00:23:31.259Z,102398.31
2022-12-18T00:26:06.635Z,102398.38
2022-12-18T00:28:33.586Z,102399.34
2022-12-18T00:31:11.525Z,102406.94
2022-12-18T00:33:39.206Z,102405.97
2022-12-18T00:36:08.577Z,102412.22
2022-12-18T00:38:35.283Z,102406.75
2022-12-18T00:41:02.279Z,102408.50
2022-12-18T00:43:28.817Z,102403.72
2022-12-18T00:45:55.343Z,102395.50
2022-12-18T00:48:22.234Z,102388.94
2022-12-18T00:50:49.812Z,102386.47
2022-12-18T00:53:16.528Z,102391.63
2022-12-18T00:55:43.688Z,102397.00
2022-12-18T00:58:11.061Z,102402.94
2022-12-18T01:00:37.665Z,102396.69
2022-12-18T01:03:04.993Z,102404.91
2022-12-18T01:05:31.758Z,102402.28
2022-12-18T01:07:58.702Z,102399.59
2022-12-18T01:10:25.902Z,102396.91
2022-12-18T01:12:52.755Z,102401.78
2022-12-18T01:15:20.157Z,102392.31
2022-12-18T01:17:46.776Z,102398.88
2022-12-18T01:20:13.883Z,102403.16
2022-12-18T01:22:40.321Z,102403.16
2022-12-18T01:25:06.980Z,102404.56
2022-12-18T01:27:35.039Z,102396.44
2022-12-18T01:30:01.517Z,102390.56
2022-12-18T01:32:31.413Z,102386.31
2022-12-18T01:34:58.027Z,102386.38
2022-12-18T01:37:24.415Z,102384.59
2022-12-18T01:39:50.927Z,102385.38
2022-12-18T01:42:18.168Z,102386.47
2022-12-18T01:45:06.060Z,102381.72
2022-12-18T01:47:46.435Z,102375.53
2022-12-18T01:50:17.690Z,102365.22
2022-12-18T01:52:48.884Z,102379.97
2022-12-18T01:55:19.195Z,102385.81
2022-12-18T01:57:46.017Z,102379.88
2022-12-18T02:00:16.410Z,102385.75
2022-12-18T02:02:44.929Z,102393.88
2022-12-18T02:05:13.798Z,102394.00
2022-12-18T02:07:52.407Z,102390.34
2022-12-18T02:10:42.612Z,102392.06
2022-12-18T02:13:12.060Z,102396.03
2022-12-18T02:15:59.727Z,102396.44
2022-12-18T02:18:33.521Z,102391.19
2022-12-18T02:21:09.256Z,102375.19
2022-12-18T02:23:53.469Z,102382.56
2022-12-18T02:26:26.883Z,102374.25
2022-12-18T02:29:08.829Z,102381.63
2022-12-18T02:31:42.242Z,102379.41
2022-12-18T02:34:10.211Z,102377.75
2022-12-18T02:36:41.527Z,102362.84
2022-12-18T02:39:11.849Z,102356.84
2022-12-18T02:41:39.631Z,102363.34
2022-12-18T02:44:12.358Z,102359.81
2022-12-18T02:46:45.317Z,102364.47
2022-12-18T02:49:30.397Z,102367.47
2022-12-18T02:52:13.487Z,102380.28
2022-12-18T02:54:48.857Z,102380.78
2022-12-18T02:57:36.441Z,102372.44
2022-12-18T03:00:26.747Z,102371.34
2022-12-18T03:03:03.615Z,102369.69
2022-12-18T03:05:42.016Z,102368.19
2022-12-18T03:08:13.487Z,102367.75
2022-12-18T03:10:46.921Z,102377.78
2022-12-18T03:13:20.940Z,102368.66
2022-12-18T03:15:51.787Z,102366.72
2022-12-18T03:18:26.795Z,102356.63
2022-12-18T03:20:57.858Z,102353.19
2022-12-18T03:23:29.743Z,102356.75
2022-12-18T03:26:05.851Z,102360.50
2022-12-18T03:28:37.931Z,102358.78
2022-12-18T03:31:08.071Z,102363.97
2022-12-18T03:33:51.829Z,102338.94
2022-12-18T03:36:18.815Z,102345.91
2022-12-18T03:38:45.272Z,102351.50
2022-12-18T03:41:17.776Z,102355.88
2022-12-18T03:44:21.861Z,102358.94
2022-12-18T03:47:07.794Z,102355.94
2022-12-18T03:50:12.299Z,102354.72
2022-12-18T03:52:45.535Z,102353.91
2022-12-18T03:55:13.149Z,102343.13
2022-12-18T03:57:40.483Z,102346.03
2022-12-18T04:00:11.544Z,102340.22
2022-12-18T04:02:42.104Z,102338.97
2022-12-18T04:05:10.641Z,102344.53
2022-12-18T04:07:39.247Z,102335.50
2022-12-18T04:10:07.930Z,102333.88
2022-12-18T04:12:34.307Z,102333.16
2022-12-18T04:15:00.709Z,102323.50
2022-12-18T04:17:27.099Z,102331.47
2022-12-18T04:19:53.476Z,102333.03
2022-12-18T04:22:19.820Z,102328.00
2022-12-18T04:24:46.991Z,102320.63
2022-12-18T04:27:13.566Z,102321.72
2022-12-18T04:29:39.950Z,102327.72
2022-12-18T04:32:06.711Z,102321.81
2022-12-18T04:34:33.068Z,102331.00
2022-12-18T04:36:59.455Z,102331.22
2022-12-18T04:39:25.892Z,102324.66
2022-12-18T04:41:52.592Z,102326.44
2022-12-18T04:44:19.196Z,102332.72
2022-12-18T04:46:45.674Z,102323.09
2022-12-18T04:49:12.146Z,102328.44
2022-12-18T04:51:38.642Z,102317.63
2022-12-18T04:54:05.180Z,102316.06
2022-12-18T04:56:32.767Z,102322.19
2022-12-18T04:58:59.131Z,102312.53
2022-12-18T05:01:30.923Z,102313.56
2022-12-18T05:04:00.861Z,102295.63
2022-12-18T05:06:27.253Z,102302.84
2022-12-18T05:08:53.654Z,102296.47
2022-12-18T05:11:20.068Z,102301.31
2022-12-18T05:13:46.711Z,102302.59
2022-12-18T05:16:14.459Z,102303.13
2022-12-18T05:18:41.353Z,102299.75
2022-12-18T05:21:07.743Z,102308.94
2022-12-18T05:23:34.227Z,102303.53
2022-12-18T05:26:03.268Z,102298.22
2022-12-18T05:28:31.199Z,102300.63
2022-12-18T05:31:01.690Z,102289.81
2022-12-18T05:33:31.168Z,102298.56
2022-12-18T05:35:59.971Z,102308.03
2022-12-18T05:38:28.288Z,102309.91
2022-12-18T05:40:55.022Z,102308.50
2022-12-18T05:43:22.809Z,102314.69
2022-12-18T05:45:49.966Z,102315.47
2022-12-18T05:48:17.325Z,102314.56
2022-12-18T05:50:48.086Z,102318.44
2022-12-18T05:53:21.017Z,102327.81
2022-12-18T05:55:48.228Z,102335.38
2022-12-18T05:58:15.866Z,102333.78
2022-12-18T06:00:44.646Z,102342.59
2022-12-18T06:03:12.973Z,102345.00
2022-12-18T06:05:42.385Z,102348.84
2022-12-18T06:08:09.475Z,102351.19
2022-12-18T06:10:36.473Z,102360.06
2022-12-18T06:13:02.935Z,102365.47
2022-12-18T06:15:29.492Z,102363.97
2022-12-18T06:17:55.838Z,102371.84
2022-12-18T06:20:23.144Z,102375.59
2022-12-18T06:22:49.630Z,102371.75
2022-12-18T06:25:16.162Z,102371.84
2022-12-18T06:27:42.542Z,102369.44
2022-12-18T06:30:10.308Z,102372.34
2022-12-18T06:32:36.659Z,102367.22
2022-12-18T06:35:03.150Z,102358.72
2022-12-18T06:37:31.429Z,102360.44
2022-12-18T06:39:57.800Z,102353.50
2022-12-18T06:42:25.006Z,102345.00
2022-12-18T06:44:51.480Z,102333.91
2022-12-18T06:47:17.871Z,102342.97
2022-12-18T06:49:44.338Z,102339.91
2022-12-18T06:52:10.784Z,102332.94
2022-12-18T06:54:37.168Z,102332.84
2022-12-18T06:57:03.645Z,102328.84
2022-12-18T06:59:30.130Z,102320.41
2022-12-18T07:01:56.751Z,102320.16
2022-12-18T07:04:23.174Z,102316.34
2022-12-18T07:06:49.575Z,102312.34
2022-12-18T07:09:15.950Z,102314.00
2022-12-18T07:11:42.609Z,102313.00
2022-12-18T07:14:08.983Z,102316.97
2022-12-18T07:16:35.453Z,102318.47
2022-12-18T07:19:01.843Z,102327.53
2022-12-18T07:21:28.546Z,102332.78
2022-12-18T07:23:54.963Z,102329.22
2022-12-18T07:26:22.646Z,102336.59
2022-12-18T07:28:49.958Z,102337.66
2022-12-18T07:31:19.762Z,102328.38
2022-12-18T07:33:48.419Z,102335.31
2022-12-18T07:36:15.618Z,102319.72
2022-12-18T07:38:42.144Z,102315.91
2022-12-18T07:41:12.030Z,102306.72
2022-12-18T07:43:39.928Z,102312.81
2022-12-18T07:46:07.955Z,102313.72
2022-12-18T07:48:34.373Z,102316.94
2022-12-18T07:51:05.289Z,102321.84
2022-12-18T07:53:32.550Z,102311.16
2022-12-18T07:56:26.719Z,102317.00
2022-12-18T07:58:52.509Z,102325.50
2022-12-18T08:01:19.025Z,102315.13
2022-12-18T08:03:45.485Z,102322.09
2022-12-18T08:06:11.934Z,102313.50
2022-12-18T08:08:38.324Z,102295.38
2022-12-18T08:11:04.963Z,102292.59
2022-12-18T08:13:31.300Z,102293.47
2022-12-18T08:16:16.718Z,102284.06
2022-12-18T08:18:43.015Z,102277.19
2022-12-18T08:21:21.829Z,102275.09
2022-12-18T08:23:48.595Z,102274.63
2022-12-18T08:26:16.252Z,102264.25
2022-12-18T08:28:43.380Z,102254.44
2022-12-18T08:31:10.785Z,102246.00
2022-12-18T08:33:39.022Z,102246.72
2022-12-18T08:36:06.501Z,102242.53
2022-12-18T08:38:34.232Z,102244.25
2022-12-18T08:41:01.220Z,102243.13
2022-12-18T08:43:46.517Z,102239.59
2022-12-18T08:46:13.153Z,102244.75
2022-12-18T08:48:39.618Z,102247.06
2022-12-18T08:51:06.140Z,102246.13
2022-12-18T08:53:35.614Z,102260.59
2022-12-18T08:56:02.744Z,102250.66
2022-12-18T08:58:29.357Z,102253.19
2022-12-18T09:01:01.075Z,102242.72
2022-12-18T09:03:27.457Z,102253.97
2022-12-18T09:05:53.837Z,102244.34
2022-12-18T09:08:20.253Z,102247.28
2022-12-18T09:10:49.328Z,102243.53
2022-12-18T09:13:16.919Z,102223.38
2022-12-18T09:15:52.589Z,102222.25
2022-12-18T09:18:20.936Z,102232.81
2022-12-18T09:20:47.401Z,102223.47
2022-12-18T09:23:13.911Z,102225.34
2022-12-18T09:25:40.935Z,102225.63
2022-12-18T09:28:12.540Z,102227.28
2022-12-18T09:30:45.451Z,102223.22
2022-12-18T09:33:12.016Z,102224.69
2022-12-18T09:35:40.069Z,102221.72
2022-12-18T09:38:07.269Z,102228.91
2022-12-18T09:40:42.664Z,102230.47
2022-12-18T09:43:17.990Z,102225.56
2022-12-18T09:45:50.682Z,102220.50
2022-12-18T09:48:24.417Z,102212.25
2022-12-18T09:50:52.452Z,102211.16
2022-12-18T09:53:25.465Z,102211.34
2022-12-18T09:55:53.049Z,102208.81
2022-12-18T09:58:40.704Z,102206.31
2022-12-18T10:01:17.368Z,102195.56
2022-12-18T10:03:43.858Z,102191.66
2022-12-18T10:06:21.999Z,102179.50
2022-12-18T10:09:05.624Z,102178.16
2022-12-18T10:11:44.518Z,102189.97
2022-12-18T10:14:43.487Z,102187.69
2022-12-18T10:17:16.330Z,102183.53
2022-12-18T10:19:53.044Z,102178.16
2022-12-18T10:22:27.507Z,102176.16
2022-12-18T10:25:46.434Z,102166.78
2022-12-18T10:28:18.947Z,102161.47
2022-12-18T10:30:45.634Z,102157.94
2022-12-18T10:33:18.919Z,102152.22
2022-12-18T10:35:47.117Z,102144.81
2022-12-18T10:38:13.456Z,102146.25
2022-12-18T10:40:55.775Z,102149.13
2022-12-18T10:43:25.316Z,102161.25
2022-12-18T10:46:23.981Z,102151.09
2022-12-18T10:48:58.569Z,102148.63
2022-12-18T10:51:30.314Z,102144.53
2022-12-18T10:54:06.439Z,102144.75
2022-12-18T10:56:36.726Z,102126.91
2022-12-18T10:59:05.895Z,102126.94
2022-12-18T11:01:57.211Z,102119.97
2022-12-18T11:04:29.621Z,102114.28
2022-12-18T11:07:04.952Z,102125.06
2022-12-18T11:09:36.863Z,102111.16
2022-12-18T11:12:23.574Z,102122.28
2022-12-18T11:14:52.737Z,102109.72
2022-12-18T11:17:37.114Z,102111.06
2022-12-18T11:20:21.364Z,102117.16
2022-12-18T11:22:59.812Z,102114.63
2022-12-18T11:25:35.441Z,102112.97
2022-12-18T11:28:27.094Z,102105.28
2022-12-18T11:31:20.853Z,102107.50
2022-12-18T11:34:26.763Z,102086.75
2022-12-18T11:36:48.967Z,102073.44
2022-12-18T11:39:34.226Z,102067.44
2022-12-18T11:42:10.659Z,102061.44
2022-12-18T11:44:44.550Z,102068.03
2022-12-18T11:47:43.270Z,102071.94
2022-12-18T11:50:24.938Z,102087.13
2022-12-18T11:52:56.561Z,102070.75
2022-12-18T11:55:50.536Z,102066.47
2022-12-18T11:58:45.819Z,102067.50
2022-12-18T12:01:35.594Z,102070.31
2022-12-18T12:04:16.631Z,102064.88
2022-12-18T12:07:04.864Z,102060.16
2022-12-18T12:09:46.929Z,102066.44
2022-12-18T12:12:24.656Z,102067.72
2022-12-18T12:15:21.981Z,102066.50
2022-12-18T12:17:59.652Z,102071.97
2022-12-18T12:20:51.635Z,102072.59
2022-12-18T12:23:39.511Z,102060.63
2022-12-18T12:26:37.300Z,102065.81
2022-12-18T12:29:23.991Z,102040.44
2022-12-18T12:32:12.000Z,102048.88
2022-12-18T12:35:09.494Z,102047.13
2022-12-18T12:38:00.545Z,102042.16
2022-12-18T12:43:27.741Z,102043.13
2022-12-18T12:46:05.639Z,102029.13
2022-12-18T12:48:48.656Z,102030.59
2022-12-18T12:51:22.584Z,102029.16
2022-12-18T12:53:49.976Z,102027.28
2022-12-18T12:56:19.079Z,102047.69
2022-12-18T12:59:12.225Z,102041.31
2022-12-18T13:01:48.426Z,102044.38
2022-12-18T13:04:43.188Z,102036.88
2022-12-18T13:07:51.992Z,102047.56
2022-12-18T13:10:20.628Z,102050.63
2022-12-18T13:12:58.059Z,102045.56
2022-12-18T13:15:26.408Z,102044.88
2022-12-18T13:18:11.134Z,102036.84
2022-12-18T13:20:42.523Z,102038.88
2022-12-18T13:23:40.964Z,102024.06
2022-12-18T13:26:07.590Z,102026.09
2022-12-18T13:28:34.813Z,102015.25
2022-12-18T13:31:02.562Z,102012.28
2022-12-18T13:33:34.843Z,102003.19
2022-12-18T13:36:10.088Z,101996.09
2022-12-18T13:38:38.724Z,102003.75
2022-12-18T13:41:14.056Z,101990.75
2022-12-18T13:43:44.601Z,101982.81
2022-12-18T13:46:37.503Z,101992.03
2022-12-18T13:49:13.054Z,101993.72
2022-12-18T13:51:43.811Z,101988.72
2022-12-18T13:54:35.425Z,101975.88
2022-12-18T13:57:03.369Z,101970.44
2022-12-18T13:59:39.597Z,101988.94
2022-12-18T14:02:22.466Z,101977.06
2022-12-18T14:04:50.524Z,101972.22
2022-12-18T14:07:22.940Z,101964.53
2022-12-18T14:09:58.131Z,101967.03
2022-12-18T14:12:50.995Z,101962.28
2022-12-18T14:15:31.943Z,101967.28
2022-12-18T14:17:58.680Z,101962.75
2022-12-18T14:20:30.569Z,101961.09
2022-12-18T14:22:58.853Z,101954.09
2022-12-18T14:25:31.113Z,101966.38
2022-12-18T14:28:15.236Z,101953.78
2022-12-18T14:30:46.920Z,101952.31
2022-12-18T14:33:28.352Z,101937.81
2022-12-18T14:35:56.543Z,101945.69
2022-12-18T14:38:36.026Z,101939.00
2022-12-18T14:41:05.764Z,101932.88
2022-12-18T14:43:37.407Z,101939.16
2022-12-18T14:46:06.773Z,101931.00
2022-12-18T14:48:33.708Z,101933.44
2022-12-18T14:51:06.108Z,101928.19
2022-12-18T14:53:42.162Z,101918.44
2022-12-18T14:56:16.637Z,101936.91
2022-12-18T14:59:04.391Z,101920.31
2022-12-18T15:01:35.501Z,101913.22
2022-12-18T15:04:03.921Z,101922.16
2022-12-18T15:06:34.175Z,101914.97
2022-12-18T15:09:03.055Z,101912.88
2022-12-18T15:11:35.768Z,101924.75
2022-12-18T15:14:30.913Z,101903.22
2022-12-18T15:16:59.187Z,101908.56
2022-12-18T15:19:39.665Z,101896.25
2022-12-18T15:22:18.532Z,101905.19
2022-12-18T15:24:45.037Z,101898.50
2022-12-18T15:27:31.169Z,101903.41
2022-12-18T15:30:10.545Z,101901.94
2022-12-18T15:32:38.396Z,101895.66
2022-12-18T15:35:18.595Z,101894.41
2022-12-18T15:37:45.999Z,101899.09
2022-12-18T15:40:14.823Z,101893.28
2022-12-18T15:43:03.394Z,101895.97
2022-12-18T15:45:29.850Z,101893.63
2022-12-18T15:47:56.612Z,101890.19
2022-12-18T15:50:23.247Z,101887.44
2022-12-18T15:52:52.076Z,101884.44
2022-12-18T15:55:40.328Z,101888.63
2022-12-18T15:58:09.220Z,101897.97
2022-12-18T16:00:38.953Z,101901.66
2022-12-18T16:03:06.277Z,101894.72
2022-12-18T16:05:32.854Z,101879.25
2022-12-18T16:07:59.360Z,101881.09
2022-12-18T16:10:27.145Z,101894.78
2022-12-18T16:12:53.576Z,101903.16
2022-12-18T16:15:24.524Z,101910.66
2022-12-18T16:17:51.543Z,101909.66
2022-12-18T16:20:21.557Z,101903.66
2022-12-18T16:22:49.224Z,101907.84
2022-12-18T16:25:28.231Z,101919.03
2022-12-18T16:27:56.224Z,101911.34
2022-12-18T16:30:26.379Z,101904.41
2022-12-18T16:32:52.873Z,101909.88
2022-12-18T16:35:19.483Z,101904.84
2022-12-18T16:37:45.863Z,101901.75
2022-12-18T16:40:15.040Z,101900.00
2022-12-18T16:42:42.932Z,101904.16
2022-12-18T16:45:11.858Z,101917.28
2022-12-18T16:47:39.786Z,101915.78
2022-12-18T16:50:07.211Z,101901.41
2022-12-18T16:52:33.982Z,101897.19
2022-12-18T16:55:00.418Z,101897.59
2022-12-18T16:57:26.905Z,101897.00
2022-12-18T16:59:53.315Z,101889.47
2022-12-18T17:02:24.875Z,101883.16
2022-12-18T17:04:57.106Z,101880.91
2022-12-18T17:07:24.877Z,101891.50
2022-12-18T17:09:51.366Z,101882.50
2022-12-18T17:12:18.088Z,101881.81
2022-12-18T17:14:45.072Z,101882.56
2022-12-18T17:17:26.935Z,101878.06
2022-12-18T17:19:53.388Z,101875.47
2022-12-18T17:22:20.899Z,101876.28
2022-12-18T17:24:47.774Z,101878.22
2022-12-18T17:27:14.187Z,101867.13
2022-12-18T17:29:46.760Z,101875.53
2022-12-18T17:32:14.648Z,101868.22
2022-12-18T17:34:41.168Z,101857.94
2022-12-18T17:37:07.883Z,101867.72
2022-12-18T17:39:34.405Z,101857.28
2022-12-18T17:42:01.193Z,101862.09
2022-12-18T17:44:27.674Z,101867.03
2022-12-18T17:46:54.139Z,101864.63
2022-12-18T17:49:21.487Z,101871.56
2022-12-18T17:51:47.854Z,101863.63
2022-12-18T17:54:14.424Z,101865.94
2022-12-18T17:56:40.814Z,101879.72
2022-12-18T17:59:07.615Z,101875.31
2022-12-18T18:01:37.363Z,101898.41
2022-12-18T18:04:07.717Z,101889.00
2022-12-18T18:06:34.448Z,101890.00
2022-12-18T18:09:03.881Z,101892.41
2022-12-18T18:11:49.202Z,101878.72
2022-12-18T18:14:19.880Z,101871.56
2022-12-18T18:16:49.128Z,101872.03
2022-12-18T18:19:18.251Z,101882.56
2022-12-18T18:21:47.067Z,101882.81
2022-12-18T18:24:15.790Z,101882.28
2022-12-18T18:26:42.592Z,101887.16
2022-12-18T18:29:16.415Z,101872.97
2022-12-18T18:31:43.797Z,101887.16
2022-12-18T18:34:25.310Z,101883.31
2022-12-18T18:36:52.105Z,101889.50
2022-12-18T18:39:19.507Z,101884.97
2022-12-18T18:41:47.943Z,101889.31
2022-12-18T18:44:15.656Z,101895.56
2022-12-18T18:46:42.024Z,101886.72
2022-12-18T18:49:08.481Z,101891.63
2022-12-18T18:51:35.498Z,101901.81
2022-12-18T18:54:02.039Z,101889.31
2022-12-18T18:59:15.152Z,101881.31
2022-12-18T19:01:41.887Z,101886.97
2022-12-18T19:04:08.388Z,101878.47
2022-12-18T19:06:34.778Z,101868.13
2022-12-18T19:09:02.853Z,101859.59
2022-12-18T19:11:48.325Z,101874.38
2022-12-18T19:14:15.677Z,101863.13
2022-12-18T19:16:43.514Z,101873.38
2022-12-18T19:19:10.664Z,101866.56
2022-12-18T19:21:38.248Z,101876.81
2022-12-18T19:24:05.573Z,101870.16
2022-12-18T19:26:32.217Z,101875.47
2022-12-18T19:29:03.599Z,101868.81
2022-12-18T19:31:35.266Z,101860.78
2022-12-18T19:34:03.822Z,101859.88
2022-12-18T19:36:33.263Z,101865.72
2022-12-18T19:39:01.337Z,101875.63
2022-12-18T19:41:31.088Z,101874.88
2022-12-18T19:43:58.418Z,101868.97
2022-12-18T19:46:24.963Z,101865.78
2022-12-18T19:48:52.130Z,101865.13
2022-12-18T19:51:27.196Z,101852.59
2022-12-18T19:53:58.901Z,101859.47
2022-12-18T19:56:33.260Z,101863.88
2022-12-18T19:59:00.352Z,101856.13
2022-12-18T20:01:28.770Z,101856.88
2022-12-18T20:03:58.086Z,101863.63
2022-12-18T20:06:36.667Z,101863.44
2022-12-18T20:09:06.575Z,101865.78
2022-12-18T20:11:41.397Z,101878.13
2022-12-18T20:14:09.249Z,101884.84
2022-12-18T20:16:35.881Z,101877.63
2022-12-18T20:19:02.422Z,101889.06
2022-12-18T20:21:29.370Z,101873.56
2022-12-18T20:23:56.060Z,101868.53
2022-12-18T20:26:23.835Z,101870.38
2022-12-18T20:28:50.306Z,101871.22
2022-12-18T20:31:16.657Z,101873.63
2022-12-18T20:33:44.537Z,101869.31
2022-12-18T20:36:22.627Z,101860.63
2022-12-18T20:38:57.303Z,101868.38
2022-12-18T20:41:25.899Z,101861.19
2022-12-18T20:43:54.039Z,101868.28
2022-12-18T20:46:20.731Z,101857.53
2022-12-18T20:48:48.032Z,101867.72
2022-12-18T20:51:17.304Z,101865.88
2022-12-18T20:53:44.553Z,101871.22
2022-12-18T20:56:15.014Z,101886.81
2022-12-18T20:58:45.748Z,101876.97
2022-12-18T21:01:17.742Z,101872.94
2022-12-18T21:03:48.761Z,101875.88
2022-12-18T21:06:17.931Z,101881.91
2022-12-18T21:08:44.974Z,101882.91
2022-12-18T21:11:35.981Z,101886.38
2022-12-18T21:14:13.489Z,101871.34
2022-12-18T21:16:40.756Z,101879.22
2022-12-18T21:19:07.250Z,101872.78
2022-12-18T21:21:35.870Z,101871.94
2022-12-18T21:24:05.995Z,101869.94
2022-12-18T21:26:32.372Z,101861.25
2022-12-18T21:29:01.411Z,101860.34
2022-12-18T21:31:31.565Z,101860.88
2022-12-18T21:34:02.171Z,101879.34
2022-12-18T21:36:29.642Z,101873.41
2022-12-18T21:38:57.226Z,101867.00
2022-12-18T21:41:43.967Z,101863.72
2022-12-18T21:44:15.305Z,101862.06
2022-12-18T21:46:44.715Z,101864.09
2022-12-18T21:49:14.447Z,101858.56
2022-12-18T21:51:41.805Z,101858.75
2022-12-18T21:54:08.221Z,101854.59
2022-12-18T21:56:53.054Z,101847.69
2022-12-18T21:59:26.405Z,101831.75
2022-12-18T22:01:54.637Z,101841.41
2022-12-18T22:04:21.735Z,101833.91
2022-12-18T22:06:49.090Z,101823.47
2022-12-18T22:09:18.729Z,101824.97
2022-12-18T22:11:45.695Z,101821.16
2022-12-18T22:14:13.637Z,101822.38
2022-12-18T22:16:40.509Z,101810.13
2022-12-18T22:19:07.788Z,101815.78
2022-12-18T22:21:36.143Z,101819.47
2022-12-18T22:24:06.057Z,101813.88
2022-12-18T22:26:39.447Z,101810.31
2022-12-18T22:29:26.266Z,101806.47
2022-12-18T22:31:52.672Z,101802.84
2022-12-18T22:34:22.844Z,101794.25
2022-12-18T22:36:50.655Z,101789.06
2022-12-18T22:39:25.468Z,101781.03
2022-12-18T22:41:52.206Z,101794.69
2022-12-18T22:44:19.398Z,101787.56
2022-12-18T22:46:53.999Z,101779.03
2022-12-18T22:49:32.299Z,101785.41
2022-12-18T22:52:00.341Z,101776.16
2022-12-18T22:54:26.701Z,101782.84
2022-12-18T22:56:53.067Z,101775.09
2022-12-18T22:59:23.249Z,101760.72
2022-12-18T23:01:51.453Z,101749.25
2022-12-18T23:04:28.381Z,101749.72
2022-12-18T23:06:57.601Z,101740.53
2022-12-18T23:09:24.152Z,101753.78
2022-12-18T23:11:50.793Z,101745.81
2022-12-18T23:14:17.281Z,101735.66
2022-12-18T23:16:43.765Z,101743.16
2022-12-18T23:19:12.593Z,101727.25
2022-12-18T23:21:39.291Z,101735.34
2022-12-18T23:24:06.106Z,101736.59
2022-12-18T23:26:32.500Z,101733.63
2022-12-18T23:28:58.942Z,101738.44
2022-12-18T23:31:28.349Z,101733.41
2022-12-18T23:33:57.092Z,101726.97
2022-12-18T23:36:24.212Z,101708.47
2022-12-18T23:38:55.385Z,101702.34
2022-12-18T23:41:23.907Z,101700.69
2022-12-18T23:43:50.730Z,101695.31
2022-12-18T23:46:24.101Z,101699.56
2022-12-18T23:48:51.745Z,101700.22
2022-12-18T23:51:20.520Z,101693.09
2022-12-18T23:53:46.848Z,101690.50
2022-12-18T23:56:14.579Z,101687.63
2022-12-18T23:58:42.183Z,101678.47
